Time;durP1;ratioP1;P1;durP2;ratioP2;P2;SDS_P1;SDS_P2;PMS_P1;PMS_P2;Temp;Humidity;BMP_temperature;BMP_pressure;BME280_temperature;BME280_humidity;BME280_pressure;Samples;Min_cycle;Max_cycle;Signal;HPM_P1;HPM_P2
2023/05/10 00:00:56;;;;;;;6.87;5.60;;;;;;;10.51;100.00;94858.69;5100382;28;20577;-79
2023/05/10 00:03:23;;;;;;;7.00;5.40;;;;;;;10.56;100.00;94868.47;5106054;28;20241;-79
2023/05/10 00:05:51;;;;;;;7.17;5.70;;;;;;;10.49;100.00;94858.13;5105555;28;20215;-78
2023/05/10 00:08:18;;;;;;;6.77;5.97;;;;;;;10.51;100.00;94847.50;5107907;28;20569;-77
2023/05/10 00:10:45;;;;;;;8.23;5.70;;;;;;;10.54;100.00;94857.47;5097033;28;20197;-78
2023/05/10 00:13:12;;;;;;;8.57;5.90;;;;;;;10.47;100.00;94860.16;5100168;28;20241;-78
2023/05/10 00:15:39;;;;;;;8.37;6.60;;;;;;;10.44;100.00;94841.56;5101583;28;20220;-77
2023/05/10 00:18:06;;;;;;;7.60;6.13;;;;;;;10.48;100.00;94843.53;5100875;28;20573;-76
2023/05/10 00:20:33;;;;;;;8.07;6.53;;;;;;;10.50;100.00;94846.72;5102542;28;20546;-76
2023/05/10 00:23:01;;;;;;;9.23;6.97;;;;;;;10.50;100.00;94832.94;5100948;28;20242;-77
2023/05/10 00:25:28;;;;;;;8.57;6.57;;;;;;;10.44;100.00;94844.19;5106438;28;20188;-78
2023/05/10 00:27:55;;;;;;;8.33;6.70;;;;;;;10.34;100.00;94834.25;5099679;28;20212;-77
2023/05/10 00:30:21;;;;;;;7.30;6.50;;;;;;;10.44;100.00;94844.19;5104782;28;20609;-77
2023/05/10 00:32:49;;;;;;;9.27;7.60;;;;;;;10.39;100.00;94839.59;5106495;28;20189;-79
2023/05/10 00:35:16;;;;;;;8.83;7.57;;;;;;;10.37;100.00;94846.03;5088722;28;20246;-79
2023/05/10 00:37:43;;;;;;;10.03;7.87;;;;;;;10.27;100.00;94841.31;5097745;28;20192;-78
2023/05/10 00:40:13;;;;;;;12.33;8.43;;;;;;;10.30;100.00;94840.09;5100676;28;20626;-78
2023/05/10 00:42:40;;;;;;;10.13;8.03;;;;;;;10.25;100.00;94836.31;5103169;28;20203;-78
2023/05/10 00:45:08;;;;;;;10.10;7.90;;;;;;;10.30;100.00;94824.50;5105881;28;20716;-78
2023/05/10 00:47:35;;;;;;;10.60;8.60;;;;;;;10.26;100.00;94831.91;5103601;28;20192;-77
2023/05/10 00:50:02;;;;;;;9.47;7.93;;;;;;;10.29;100.00;94835.91;5106774;28;20249;-79
2023/05/10 00:52:29;;;;;;;9.80;8.00;;;;;;;10.31;100.00;94831.28;5099714;28;20197;-79
2023/05/10 00:54:57;;;;;;;15.67;8.70;;;;;;;10.26;100.00;94834.50;5094163;28;20188;-78
2023/05/10 00:57:25;;;;;;;9.97;8.67;;;;;;;10.23;100.00;94833.13;5095958;28;20196;-77
2023/05/10 00:59:52;;;;;;;11.97;9.07;;;;;;;10.15;100.00;94830.00;5097268;28;20570;-78
2023/05/10 01:02:19;;;;;;;10.00;8.43;;;;;;;10.06;100.00;94821.66;5102694;28;20189;-78
2023/05/10 01:04:47;;;;;;;13.70;9.10;;;;;;;10.05;100.00;94822.66;5102764;28;20220;-78
2023/05/10 01:07:13;;;;;;;11.83;8.53;;;;;;;10.15;100.00;94828.22;5100150;28;20246;-78
2023/05/10 01:09:40;;;;;;;10.90;8.90;;;;;;;10.15;100.00;94817.81;5099094;28;20245;-78
2023/05/10 01:12:08;;;;;;;11.13;9.10;;;;;;;10.16;100.00;94828.97;5101734;28;20195;-79
2023/05/10 01:14:37;;;;;;;13.97;9.63;;;;;;;10.07;100.00;94820.63;5099603;28;20545;-79
2023/05/10 01:17:05;;;;;;;11.07;9.00;;;;;;;9.99;100.00;94823.47;5099683;28;20219;-78
2023/05/10 01:19:37;;;;;;;11.53;9.27;;;;;;;10.00;100.00;94819.88;5102755;28;20196;-79
2023/05/10 01:22:16;;;;;;;11.67;8.53;;;;;;;10.00;100.00;94816.50;5103522;28;20638;-79
2023/05/10 01:25:18;;;;;;;11.50;9.10;;;;;;;10.05;100.00;94814.84;5103647;28;20207;-79
2023/05/10 01:28:26;;;;;;;9.47;8.43;;;;;;;10.09;100.00;94810.03;5089434;28;20957;-78
2023/05/10 01:31:31;;;;;;;28.27;22.63;;;;;;;10.07;100.00;94804.28;5092065;28;20192;-77
2023/05/10 01:34:03;;;;;;;9.90;8.80;;;;;;;10.10;100.00;94812.41;5096898;28;20195;-78
2023/05/10 01:36:33;;;;;;;9.87;8.67;;;;;;;10.11;100.00;94803.63;5099328;28;20196;-77
2023/05/10 01:39:07;;;;;;;11.27;8.40;;;;;;;10.10;100.00;94802.03;5100701;28;20272;-77
2023/05/10 01:41:42;;;;;;;9.57;8.00;;;;;;;10.09;100.00;94792.66;5100191;28;20195;-77
2023/05/10 01:44:17;;;;;;;8.97;7.97;;;;;;;10.01;100.00;94795.53;5103643;28;20224;-77
2023/05/10 01:46:48;;;;;;;12.30;7.90;;;;;;;9.97;100.00;94783.16;5104352;28;20195;-76
2023/05/10 01:49:24;;;;;;;9.37;7.47;;;;;;;9.98;100.00;94787.34;5100444;28;20670;-77
2023/05/10 01:51:54;;;;;;;8.03;6.90;;;;;;;9.92;100.00;94795.97;5103165;28;20185;-77
2023/05/10 01:54:24;;;;;;;8.87;6.67;;;;;;;9.79;100.00;94789.06;5103426;28;20272;-77
2023/05/10 01:57:00;;;;;;;8.67;6.63;;;;;;;9.68;100.00;94789.75;5106219;28;20189;-77
2023/05/10 01:59:31;;;;;;;7.63;6.60;;;;;;;9.65;100.00;94803.13;5103949;28;20191;-77
2023/05/10 02:02:00;;;;;;;7.40;6.30;;;;;;;9.63;100.00;94792.16;5104678;28;20200;-77
2023/05/10 02:04:29;;;;;;;7.90;6.80;;;;;;;9.58;100.00;94797.97;5099975;28;20332;-78
2023/05/10 02:06:57;;;;;;;8.57;7.03;;;;;;;9.57;100.00;94785.22;5099875;28;20287;-77
2023/05/10 02:09:26;;;;;;;7.30;6.60;;;;;;;9.57;100.00;94791.19;5105456;28;20211;-77
2023/05/10 02:11:54;;;;;;;7.00;6.30;;;;;;;9.57;100.00;94793.81;5105551;28;20188;-77
2023/05/10 02:14:24;;;;;;;7.00;6.07;;;;;;;9.58;100.00;94790.19;5103989;28;20185;-77
2023/05/10 02:16:53;;;;;;;6.73;6.03;;;;;;;9.61;100.00;94794.16;5105699;28;20643;-77
2023/05/10 02:19:22;;;;;;;6.20;5.60;;;;;;;9.58;100.00;94786.81;5103828;28;20651;-78
2023/05/10 02:21:52;;;;;;;6.00;5.17;;;;;;;9.52;100.00;94795.44;5108209;28;20196;-78
2023/05/10 02:24:20;;;;;;;8.33;5.00;;;;;;;9.44;100.00;94793.84;5099545;28;20728;-79
2023/05/10 02:26:50;;;;;;;5.93;5.33;;;;;;;9.34;100.00;94796.09;5110906;28;20558;-78
2023/05/10 02:29:17;;;;;;;6.67;5.20;;;;;;;9.30;100.00;94807.09;5102539;28;20204;-76
2023/05/10 02:31:45;;;;;;;7.60;5.17;;;;;;;9.21;100.00;94796.16;5104148;28;20196;-77
2023/05/10 02:34:13;;;;;;;6.90;5.50;;;;;;;9.13;100.00;94786.81;5102854;28;20189;-78
2023/05/10 02:36:41;;;;;;;7.27;5.47;;;;;;;9.03;100.00;94788.25;5096783;28;20552;-78
2023/05/10 02:39:12;;;;;;;6.27;5.07;;;;;;;9.00;100.00;94806.81;5106946;28;20196;-78
2023/05/10 02:41:41;;;;;;;5.87;4.97;;;;;;;8.92;100.00;94791.47;5104574;28;20189;-79
2023/05/10 02:44:10;;;;;;;7.13;5.40;;;;;;;8.86;100.00;94798.25;5102703;28;20208;-78
2023/05/10 02:46:37;;;;;;;8.33;5.47;;;;;;;8.81;100.00;94797.28;5101872;28;20233;-79
2023/05/10 02:49:04;;;;;;;7.30;5.90;;;;;;;8.88;100.00;94792.88;5104649;28;20279;-80
2023/05/10 02:51:35;;;;;;;6.53;5.20;;;;;;;8.77;100.00;94796.09;5099211;28;20265;-80
2023/05/10 02:54:08;;;;;;;8.33;5.70;;;;;;;8.60;100.00;94769.81;5103805;28;20196;-79
2023/05/10 02:56:40;;;;;;;10.17;5.30;;;;;;;8.46;100.00;94788.97;5099767;28;20189;-80
2023/05/10 02:59:07;;;;;;;10.20;5.87;;;;;;;8.62;100.00;94795.53;5097214;28;20292;-79
2023/05/10 03:01:34;;;;;;;6.97;5.23;;;;;;;8.50;100.00;94790.97;5108061;28;20188;-79
2023/05/10 03:04:01;;;;;;;7.77;5.63;;;;;;;8.58;100.00;94802.91;5104029;28;20695;-80
2023/05/10 03:06:28;;;;;;;6.83;5.63;;;;;;;8.57;100.00;94795.34;5099096;28;20193;-78
2023/05/10 03:08:56;;;;;;;10.83;5.80;;;;;;;8.63;100.00;94797.13;5095893;28;20287;-77
2023/05/10 03:11:33;;;;;;;7.50;5.63;;;;;;;8.62;100.00;94785.97;5104426;28;20677;-77
2023/05/10 03:14:25;;;;;;;9.13;5.87;;;;;;;8.57;100.00;94795.34;5101626;28;20198;-77
2023/05/10 03:16:59;;;;;;;9.10;6.00;;;;;;;8.61;100.00;94797.31;5094227;28;20249;-77
2023/05/10 03:19:31;;;;;;;7.27;5.43;;;;;;;8.68;100.00;94803.28;5101349;28;20761;-78
2023/05/10 03:22:04;;;;;;;7.53;5.63;;;;;;;8.64;100.00;94801.28;5100545;28;20196;-79
2023/05/10 03:24:33;;;;;;;7.70;5.67;;;;;;;8.67;100.00;94799.09;5103234;28;20209;-78
2023/05/10 03:27:02;;;;;;;9.00;5.90;;;;;;;8.61;100.00;94807.69;5101760;28;20208;-78
2023/05/10 03:29:32;;;;;;;8.53;5.60;;;;;;;8.49;100.00;94801.50;5103405;28;20275;-78
2023/05/10 03:32:00;;;;;;;7.80;5.50;;;;;;;8.55;100.00;94811.06;5103517;28;20196;-80
2023/05/10 03:34:27;;;;;;;7.33;5.63;;;;;;;8.43;100.00;94816.06;5100232;28;20189;-79
2023/05/10 03:36:53;;;;;;;8.07;6.03;;;;;;;8.46;100.00;94822.63;5102768;28;20187;-79
2023/05/10 03:39:21;;;;;;;8.23;6.27;;;;;;;8.43;100.00;94816.06;5102395;28;20188;-78
2023/05/10 03:41:48;;;;;;;8.50;5.80;;;;;;;8.47;100.00;94808.69;5106487;28;20693;-79
2023/05/10 03:44:14;;;;;;;6.93;5.10;;;;;;;8.59;100.00;94809.69;5101156;28;20627;-80
2023/05/10 03:46:42;;;;;;;7.10;5.53;;;;;;;8.62;100.00;94827.41;5100269;28;20192;-79
2023/05/10 03:49:09;;;;;;;7.83;5.80;;;;;;;8.54;100.00;94825.81;5097747;28;20689;-79
2023/05/10 03:51:36;;;;;;;8.17;6.10;;;;;;;8.54;100.00;94817.28;5101467;28;20207;-79
2023/05/10 03:54:04;;;;;;;9.10;6.13;;;;;;;8.47;100.00;94819.06;5113029;28;20323;-81
2023/05/10 03:56:31;;;;;;;7.47;5.70;;;;;;;8.62;100.00;94831.78;5097791;28;20570;-80
2023/05/10 03:58:58;;;;;;;7.33;5.50;;;;;;;8.56;100.00;94825.63;5101117;28;20197;-78
2023/05/10 04:01:24;;;;;;;11.40;6.03;;;;;;;8.58;100.00;94831.41;5098897;28;20579;-78
2023/05/10 04:03:53;;;;;;;8.43;6.20;;;;;;;8.58;100.00;94831.41;5102825;28;20227;-78
2023/05/10 04:06:20;;;;;;;9.20;6.07;;;;;;;8.69;100.00;94846.31;5097773;28;20583;-78
2023/05/10 04:08:46;;;;;;;9.73;6.40;;;;;;;8.71;100.00;94833.97;5104542;28;20192;-78
2023/05/10 04:11:14;;;;;;;10.40;6.43;;;;;;;8.74;100.00;94836.19;5106852;28;20201;-79
2023/05/10 04:13:41;;;;;;;7.77;6.10;;;;;;;8.74;100.00;94840.56;5100218;28;20261;-77
2023/05/10 04:16:07;;;;;;;11.30;6.00;;;;;;;8.77;100.00;94837.56;5105828;28;20262;-78
2023/05/10 04:18:34;;;;;;;9.37;5.90;;;;;;;8.80;100.00;94845.69;5103566;28;20201;-79
2023/05/10 04:21:03;;;;;;;10.00;6.60;;;;;;;8.78;100.00;94844.31;5103747;28;20254;-79
2023/05/10 04:23:30;;;;;;;11.13;6.67;;;;;;;8.75;100.00;94847.31;5082771;28;20223;-78
2023/05/10 04:26:01;;;;;;;10.60;6.33;;;;;;;8.80;100.00;94842.34;5104143;28;20211;-78
2023/05/10 04:28:28;;;;;;;9.80;6.47;;;;;;;8.82;100.00;94842.94;5100679;28;20276;-77
2023/05/10 04:31:02;;;;;;;8.30;6.30;;;;;;;8.82;100.00;94843.72;5102033;28;20196;-77
2023/05/10 04:33:28;;;;;;;9.60;6.83;;;;;;;8.76;100.00;94829.00;5102387;28;20185;-78
2023/05/10 04:35:55;;;;;;;9.97;6.70;;;;;;;8.83;100.00;94839.34;5097524;28;20200;-77
2023/05/10 04:38:24;;;;;;;7.13;5.90;;;;;;;8.84;100.00;94835.75;5103011;28;20196;-80
2023/05/10 04:40:51;;;;;;;8.07;6.17;;;;;;;8.85;100.00;94845.13;5100295;28;20188;-79
2023/05/10 04:43:18;;;;;;;10.47;6.30;;;;;;;8.90;100.00;94842.72;5098101;28;20200;-77
2023/05/10 04:45:45;;;;;;;8.03;6.27;;;;;;;8.97;100.00;94852.09;5100784;28;20205;-78
2023/05/10 04:48:12;;;;;;;8.33;6.30;;;;;;;8.88;100.00;94840.34;5097117;28;20221;-77
2023/05/10 04:50:40;;;;;;;12.10;6.70;;;;;;;8.91;100.00;94845.09;5100327;28;20219;-78
2023/05/10 04:53:06;;;;;;;9.47;6.30;;;;;;;9.01;100.00;94842.06;5102269;28;20188;-77
2023/05/10 04:55:34;;;;;;;8.13;6.50;;;;;;;8.97;100.00;94840.91;5098764;28;20181;-77
2023/05/10 04:58:02;;;;;;;8.67;6.53;;;;;;;8.91;100.00;94839.13;5082692;28;20652;-83
2023/05/10 05:00:29;;;;;;;10.30;6.60;;;;;;;8.90;100.00;94848.69;5096425;28;20211;-77
2023/05/10 05:02:56;;;;;;;13.80;7.17;;;;;;;8.85;100.00;94842.53;5104092;28;20195;-77
2023/05/10 05:05:22;;;;;;;8.93;6.63;;;;;;;8.84;100.00;94852.09;5093779;28;20239;-76
2023/05/10 05:07:49;;;;;;;14.30;7.50;;;;;;;8.90;100.00;94850.47;5105456;28;20275;-78
2023/05/10 05:10:16;;;;;;;9.43;6.90;;;;;;;8.89;100.00;94846.28;5097489;28;20196;-78
2023/05/10 05:12:47;;;;;;;9.97;7.47;;;;;;;8.88;100.00;94845.50;5104351;28;20608;-78
2023/05/10 05:15:16;;;;;;;10.07;7.00;;;;;;;8.93;100.00;94860.44;5098203;28;20181;-77
2023/05/10 05:17:43;;;;;;;9.00;6.97;;;;;;;8.96;100.00;94850.47;5104871;28;20188;-78
2023/05/10 05:20:11;;;;;;;12.07;7.37;;;;;;;9.09;100.00;94855.63;5110577;28;20712;-78
2023/05/10 05:22:38;;;;;;;10.33;7.00;;;;;;;9.04;100.00;94854.63;5109768;28;20244;-80
2023/05/10 05:25:06;;;;;;;10.80;7.33;;;;;;;9.11;100.00;94852.84;5100135;28;20273;-78
2023/05/10 05:27:32;;;;;;;9.67;7.60;;;;;;;9.16;100.00;94844.44;5098321;28;20204;-78
2023/05/10 05:30:00;;;;;;;9.60;7.30;;;;;;;9.21;100.00;94863.56;5102684;28;20258;-77
2023/05/10 05:32:27;;;;;;;12.60;7.90;;;;;;;9.22;100.00;94866.97;5102849;28;20195;-78
2023/05/10 05:34:54;;;;;;;10.47;7.93;;;;;;;9.28;100.00;94866.94;5102202;28;20193;-78
2023/05/10 05:37:22;;;;;;;13.43;7.80;;;;;;;9.35;100.00;94866.94;5097314;28;20651;-79
2023/05/10 05:39:49;;;;;;;13.43;8.13;;;;;;;9.41;100.00;94876.47;5111213;28;20199;-79
2023/05/10 05:42:17;;;;;;;10.17;7.90;;;;;;;9.45;100.00;94870.69;5111832;28;20188;-79
2023/05/10 05:44:44;;;;;;;11.43;8.23;;;;;;;9.50;100.00;94872.63;5106448;28;20615;-78
2023/05/10 05:47:13;;;;;;;11.60;8.53;;;;;;;9.39;100.00;94868.09;5106236;28;20656;-79
2023/05/10 05:49:39;;;;;;;15.50;9.47;;;;;;;9.41;100.00;94874.66;5108112;28;20603;-80
2023/05/10 05:52:06;;;;;;;12.67;8.73;;;;;;;9.41;100.00;94877.25;5101919;28;20579;-79
2023/05/10 05:54:33;;;;;;;10.67;8.33;;;;;;;9.41;100.00;94872.06;5108106;28;20189;-79
2023/05/10 05:57:01;;;;;;;13.57;9.07;;;;;;;9.48;100.00;94882.44;5104668;28;20207;-79
2023/05/10 05:59:28;;;;;;;14.10;9.63;;;;;;;9.46;100.00;94877.47;5104393;28;20219;-80
2023/05/10 06:01:55;;;;;;;13.77;9.33;;;;;;;9.50;100.00;94870.03;5094705;28;20200;-83
2023/05/10 06:04:23;;;;;;;14.27;9.00;;;;;;;9.46;100.00;94866.28;5094072;28;20227;-79
2023/05/10 06:06:50;;;;;;;12.90;8.57;;;;;;;9.47;100.00;94878.25;5098811;28;20204;-79
2023/05/10 06:09:17;;;;;;;13.53;8.80;;;;;;;9.47;100.00;94878.25;5105115;28;20267;-79
2023/05/10 06:11:44;;;;;;;13.30;9.30;;;;;;;9.51;100.00;94885.41;5097892;28;20647;-77
2023/05/10 06:14:10;;;;;;;13.20;9.27;;;;;;;9.53;100.00;94895.56;5102910;28;20192;-77
2023/05/10 06:16:37;;;;;;;12.50;9.30;;;;;;;9.61;100.00;94890.16;5100368;28;20184;-77
2023/05/10 06:19:04;;;;;;;14.10;9.33;;;;;;;9.65;100.00;94888.75;5111749;28;20853;-79
2023/05/10 06:21:32;;;;;;;11.77;8.20;;;;;;;9.64;100.00;94887.94;5104760;28;20192;-80
2023/05/10 06:23:59;;;;;;;11.40;8.77;;;;;;;9.59;100.00;94874.81;5111741;28;20661;-80
2023/05/10 06:26:26;;;;;;;15.30;8.50;;;;;;;9.74;100.00;94900.50;5108306;28;20216;-79
2023/05/10 06:28:53;;;;;;;12.83;8.20;;;;;;;9.82;100.00;94897.66;5108878;28;20192;-79
2023/05/10 06:31:20;;;;;;;11.57;8.70;;;;;;;9.77;100.00;94894.09;5096308;28;20189;-79
2023/05/10 06:33:46;;;;;;;14.67;8.50;;;;;;;9.85;100.00;94902.44;5112796;28;20200;-79
2023/05/10 06:36:13;;;;;;;13.90;8.43;;;;;;;9.90;100.00;94894.81;5103458;28;20220;-80
2023/05/10 06:38:42;;;;;;;12.40;8.33;;;;;;;9.90;100.00;94894.81;5101066;28;20253;-80
2023/05/10 06:41:09;;;;;;;16.70;8.50;;;;;;;9.98;100.00;94901.59;5099636;28;20207;-80
2023/05/10 06:43:39;;;;;;;15.63;8.63;;;;;;;10.07;100.00;94897.75;5101813;28;20645;-80
2023/05/10 06:46:06;;;;;;;12.90;8.73;;;;;;;10.03;100.00;94915.53;5093400;28;20551;-80
2023/05/10 06:48:35;;;;;;;11.13;8.43;;;;;;;10.06;100.00;94898.75;5098657;28;20279;-80
2023/05/10 06:51:02;;;;;;;9.80;7.90;;;;;;;10.01;100.00;94899.38;5106991;28;20579;-80
2023/05/10 06:53:29;;;;;;;12.80;8.40;;;;;;;9.97;100.00;94885.22;5094965;28;20193;-80
2023/05/10 06:55:57;;;;;;;12.93;8.83;;;;;;;10.07;100.00;94906.31;5110616;28;20196;-80
2023/05/10 06:58:24;;;;;;;13.77;8.33;;;;;;;10.04;100.00;94905.94;5074017;28;20209;-80
2023/05/10 07:00:51;;;;;;;11.90;9.00;;;;;;;10.08;100.00;94910.50;5102439;28;20197;-81
2023/05/10 07:03:18;;;;;;;11.27;8.27;;;;;;;10.06;100.00;94909.94;5105531;28;20204;-80
2023/05/10 07:05:45;;;;;;;13.10;9.03;;;;;;;10.05;100.00;94918.72;5100299;28;20234;-80
2023/05/10 07:08:13;;;;;;;13.90;8.57;;;;;;;10.06;100.00;94915.13;5103830;28;20257;-79
2023/05/10 07:10:40;;;;;;;11.50;8.43;;;;;;;9.99;100.00;94913.53;5098502;28;20221;-80
2023/05/10 07:13:08;;;;;;;15.07;8.97;;;;;;;10.01;100.00;94914.16;5100511;28;20196;-80
2023/05/10 07:15:34;;;;;;;11.73;8.80;;;;;;;9.92;100.00;94908.41;5085292;28;20567;-79
2023/05/10 07:18:01;;;;;;;12.23;8.90;;;;;;;9.93;100.00;94915.16;5095199;28;20581;-79
2023/05/10 07:20:28;;;;;;;13.93;9.03;;;;;;;10.04;100.00;94913.75;5110194;28;20230;-80
2023/05/10 07:22:55;;;;;;;13.97;9.07;;;;;;;10.03;100.00;94920.72;5097395;28;20607;-80
2023/05/10 07:25:22;;;;;;;15.37;9.27;;;;;;;10.14;100.00;94924.50;5095293;28;20303;-79
2023/05/10 07:27:49;;;;;;;13.27;9.73;;;;;;;10.04;100.00;94909.31;5097156;28;20204;-81
2023/05/10 07:30:18;;;;;;;14.67;8.90;;;;;;;10.14;100.00;94919.28;5095889;28;20281;-79
2023/05/10 07:32:45;;;;;;;12.33;8.10;;;;;;;10.12;100.00;94922.09;5101350;28;20189;-78
2023/05/10 07:35:12;;;;;;;14.47;9.30;;;;;;;10.17;100.00;94930.06;5103936;28;20812;-79
2023/05/10 07:37:38;;;;;;;13.80;8.53;;;;;;;10.20;100.00;94916.66;5096449;28;20196;-79
2023/05/10 07:40:07;;;;;;;13.33;9.30;;;;;;;10.19;100.00;94917.66;5093823;28;20192;-75
2023/05/10 07:42:33;;;;;;;12.90;9.10;;;;;;;10.26;100.00;94917.63;5101220;28;20203;-76
2023/05/10 07:45:00;;;;;;;12.37;8.63;;;;;;;10.27;100.00;94920.00;5100497;28;20189;-75
2023/05/10 07:47:28;;;;;;;12.87;8.27;;;;;;;10.31;100.00;94914.41;5100126;28;20208;-76
2023/05/10 07:49:55;;;;;;;12.33;9.33;;;;;;;10.36;100.00;94924.97;5103207;28;20197;-75
2023/05/10 07:52:22;;;;;;;18.00;9.90;;;;;;;10.41;100.00;94927.72;5102080;28;20203;-76
2023/05/10 07:54:48;;;;;;;12.93;9.20;;;;;;;10.33;100.00;94912.41;5100434;28;20200;-76
2023/05/10 07:57:17;;;;;;;14.73;9.13;;;;;;;10.49;100.00;94928.28;5102420;28;20181;-76
2023/05/10 07:59:44;;;;;;;14.60;9.20;;;;;;;10.55;100.00;94934.44;5100765;28;20199;-76
2023/05/10 08:02:11;;;;;;;15.27;10.20;;;;;;;10.57;100.00;94929.81;5101779;28;20242;-76
2023/05/10 08:04:39;;;;;;;13.53;9.83;;;;;;;10.55;100.00;94937.84;5100312;28;20717;-76
2023/05/10 08:07:07;;;;;;;18.67;10.33;;;;;;;10.58;100.00;94923.63;5102710;28;20216;-77
2023/05/10 08:09:33;;;;;;;18.43;10.70;;;;;;;10.67;100.00;94938.75;5105319;28;20184;-76
2023/05/10 08:12:01;;;;;;;15.10;10.13;;;;;;;10.74;99.11;94942.09;5098324;28;20192;-75
2023/05/10 08:14:29;;;;;;;14.07;10.90;;;;;;;10.71;100.00;94939.91;5100209;28;20188;-76
2023/05/10 08:16:56;;;;;;;13.97;10.20;;;;;;;10.77;100.00;94931.25;5097412;28;20196;-76
2023/05/10 08:19:23;;;;;;;15.83;10.57;;;;;;;10.81;100.00;94931.66;5101229;28;20192;-76
2023/05/10 08:21:51;;;;;;;14.27;9.93;;;;;;;10.90;100.00;94932.19;5102737;28;20197;-76
2023/05/10 08:24:18;;;;;;;12.77;9.60;;;;;;;10.99;100.00;94930.91;5096351;28;20189;-76
2023/05/10 08:26:45;;;;;;;19.60;10.23;;;;;;;10.90;100.00;94922.56;5095986;28;20397;-76
2023/05/10 08:29:11;;;;;;;17.57;10.17;;;;;;;10.94;99.02;94936.72;5104195;28;20188;-76
2023/05/10 08:31:38;;;;;;;15.23;10.60;;;;;;;11.03;100.00;94938.06;5101553;28;20196;-76
2023/05/10 08:34:05;;;;;;;17.73;10.10;;;;;;;11.08;100.00;94922.59;5100121;28;20193;-77
2023/05/10 08:36:32;;;;;;;13.43;9.90;;;;;;;11.05;100.00;94932.66;5099650;28;20204;-76
2023/05/10 08:39:01;;;;;;;13.17;10.20;;;;;;;11.10;100.00;94943.19;5100433;28;20319;-76
2023/05/10 08:41:29;;;;;;;14.50;9.97;;;;;;;11.08;100.00;94940.81;5102223;28;20648;-76
2023/05/10 08:43:56;;;;;;;12.47;10.00;;;;;;;11.05;100.00;94943.06;5096993;28;20197;-76
2023/05/10 08:46:24;;;;;;;14.37;10.23;;;;;;;11.07;100.00;94944.44;5094881;28;20224;-75
2023/05/10 08:48:52;;;;;;;12.20;9.33;;;;;;;11.08;100.00;94937.44;5093114;28;20197;-76
2023/05/10 08:51:23;;;;;;;12.63;9.53;;;;;;;11.11;100.00;94942.22;5104239;28;20696;-76
2023/05/10 08:53:51;;;;;;;13.80;10.03;;;;;;;11.18;100.00;94932.53;5101287;28;20199;-76
2023/05/10 08:56:21;;;;;;;11.40;9.03;;;;;;;11.25;100.00;94931.47;5110943;28;20199;-80
2023/05/10 08:58:48;;;;;;;12.90;9.13;;;;;;;11.29;99.14;94942.22;5106125;28;20287;-79
2023/05/10 09:01:17;;;;;;;13.60;10.50;;;;;;;11.26;100.00;94934.84;5103286;28;20192;-83
2023/05/10 09:03:44;;;;;;;14.00;10.63;;;;;;;11.21;100.00;94945.91;5106329;28;20192;-80
2023/05/10 09:06:13;;;;;;;14.83;10.43;;;;;;;11.18;100.00;94933.31;5107160;28;20211;-80
2023/05/10 09:08:42;;;;;;;15.10;10.87;;;;;;;11.24;100.00;94939.47;5096461;28;20333;-81
2023/05/10 09:11:10;;;;;;;12.80;10.57;;;;;;;11.27;100.00;94934.63;5096347;28;20574;-79
2023/05/10 09:13:38;;;;;;;17.27;10.40;;;;;;;11.36;100.00;94932.56;5099720;28;20195;-80
2023/05/10 09:16:05;;;;;;;13.77;10.87;;;;;;;11.43;99.98;94938.47;5094232;28;20195;-80
2023/05/10 09:18:32;;;;;;;14.10;11.30;;;;;;;11.40;99.17;94933.69;5100016;28;20692;-80
2023/05/10 09:20:59;;;;;;;15.30;10.83;;;;;;;11.44;99.34;94934.06;5107334;28;20220;-79
2023/05/10 09:23:31;;;;;;;15.17;10.57;;;;;;;11.41;98.02;94937.91;5099041;28;20192;-79
2023/05/10 09:26:05;;;;;;;12.80;9.97;;;;;;;11.15;99.29;94945.94;5097669;28;20220;-78
2023/05/10 09:28:33;;;;;;;12.90;10.47;;;;;;;11.01;99.99;94929.69;5099798;28;20189;-79
2023/05/10 09:31:01;;;;;;;15.30;9.83;;;;;;;11.14;99.55;94926.94;5096228;28;20197;-79
2023/05/10 09:33:29;;;;;;;15.13;10.20;;;;;;;11.23;99.24;94940.47;5107575;28;20188;-80
2023/05/10 09:35:56;;;;;;;15.87;10.57;;;;;;;11.21;98.73;94934.69;5099204;28;20265;-79
2023/05/10 09:38:22;;;;;;;16.53;9.97;;;;;;;11.24;98.07;94940.28;5105451;28;20192;-81
2023/05/10 09:40:55;;;;;;;13.93;10.17;;;;;;;11.21;97.40;94932.91;5102206;28;20199;-80
2023/05/10 09:43:21;;;;;;;13.50;10.50;;;;;;;11.25;98.42;94926.25;5101040;28;20180;-79
2023/05/10 09:45:50;;;;;;;15.20;11.53;;;;;;;11.32;97.61;94929.59;5095809;28;20651;-80
2023/05/10 09:48:18;;;;;;;19.57;11.37;;;;;;;11.36;96.85;94935.16;5075829;28;20566;-79
2023/05/10 09:50:45;;;;;;;15.60;10.70;;;;;;;11.38;97.96;94933.13;5076351;28;20208;-79
2023/05/10 09:53:15;;;;;;;13.50;10.17;;;;;;;11.53;98.25;94932.78;5094167;28;20358;-80
2023/05/10 09:55:44;;;;;;;16.00;11.40;;;;;;;11.56;96.83;94914.13;5091837;28;20675;-81
2023/05/10 09:58:11;;;;;;;16.13;10.10;;;;;;;11.63;96.90;94923.44;5088863;28;20212;-79
2023/05/10 10:00:41;;;;;;;15.87;11.00;;;;;;;11.52;95.94;94931.97;5089467;28;20274;-80
2023/05/10 10:03:14;;;;;;;15.20;10.83;;;;;;;11.60;96.07;94920.50;5090877;28;20196;-80
2023/05/10 10:05:43;;;;;;;13.43;10.70;;;;;;;11.58;96.03;94894.66;5085112;28;20817;-78
2023/05/10 10:08:13;;;;;;;13.63;11.30;;;;;;;11.67;96.46;94908.19;5086118;28;20232;-78
2023/05/10 10:10:41;;;;;;;13.07;10.37;;;;;;;11.77;93.61;94917.13;5065325;28;20203;-78
2023/05/10 10:13:08;;;;;;;15.73;10.13;;;;;;;11.80;94.25;94903.63;5092350;28;20730;-77
2023/05/10 10:15:37;;;;;;;15.93;10.40;;;;;;;11.87;94.33;94896.56;5076917;28;20658;-78
2023/05/10 10:18:04;;;;;;;16.80;10.47;;;;;;;11.96;92.43;94904.84;5078680;28;20681;-80
2023/05/10 10:20:33;;;;;;;17.97;10.43;;;;;;;12.02;94.12;94893.56;5087295;28;20712;-79
2023/05/10 10:23:02;;;;;;;13.23;9.73;;;;;;;11.91;94.10;94909.94;5089272;28;20204;-80
2023/05/10 10:25:29;;;;;;;12.87;9.77;;;;;;;12.07;93.87;94911.94;5089565;28;20343;-79
2023/05/10 10:28:12;;;;;;;13.93;10.00;;;;;;;12.13;93.02;94903.22;5084805;28;20339;-79
2023/05/10 10:30:43;;;;;;;13.03;10.10;;;;;;;12.19;91.84;94902.34;5089509;28;20210;-79
2023/05/10 10:33:34;;;;;;;13.93;9.53;;;;;;;12.14;91.91;94911.84;5092941;28;20213;-78
2023/05/10 10:36:03;;;;;;;16.53;10.73;;;;;;;11.98;93.42;94912.47;5086904;28;20666;-80
2023/05/10 10:38:59;;;;;;;14.20;9.70;;;;;;;12.03;93.00;94907.38;5087894;28;20204;-81
2023/05/10 10:41:30;;;;;;;13.47;9.27;;;;;;;12.03;93.95;94904.78;5090978;28;20197;-82
2023/05/10 10:44:41;;;;;;;14.10;9.00;;;;;;;12.10;92.90;94911.50;5090651;28;20208;-78
2023/05/10 10:47:32;;;;;;;13.13;9.10;;;;;;;12.16;92.68;94912.41;5046466;28;20723;-79
2023/05/10 10:50:09;;;;;;;13.17;8.03;;;;;;;12.13;91.41;94912.84;5045419;28;20210;-79
2023/05/10 10:52:41;;;;;;;11.03;8.13;;;;;;;12.11;91.47;94915.69;5083158;28;20254;-78
2023/05/10 10:55:11;;;;;;;11.67;8.83;;;;;;;12.06;91.90;94918.16;5095989;28;20855;-79
2023/05/10 10:57:49;;;;;;;12.13;9.10;;;;;;;12.05;92.77;94915.78;5086183;28;20247;-78
2023/05/10 11:00:37;;;;;;;11.50;8.30;;;;;;;11.94;92.85;94909.50;5086658;28;20291;-79
2023/05/10 11:03:07;;;;;;;11.43;8.57;;;;;;;12.01;93.03;94914.59;5089220;28;20657;-79
2023/05/10 11:05:42;;;;;;;9.30;8.30;;;;;;;12.09;91.65;94912.50;5055877;28;20237;-79
2023/05/10 11:08:15;;;;;;;10.80;8.53;;;;;;;12.12;92.34;94908.69;5047895;28;20900;-79
2023/05/10 11:10:53;;;;;;;15.10;8.87;;;;;;;12.20;92.44;94913.56;5066665;28;20208;-80
2023/05/10 11:13:29;;;;;;;13.80;8.53;;;;;;;12.25;92.38;94911.09;5060961;28;20206;-79
2023/05/10 11:15:58;;;;;;;12.73;8.00;;;;;;;12.10;92.11;94900.25;5066541;28;20280;-78
2023/05/10 11:18:27;;;;;;;10.57;7.63;;;;;;;12.20;91.45;94911.75;5067407;28;20232;-79
2023/05/10 11:20:57;;;;;;;11.67;7.77;;;;;;;12.17;90.81;94901.78;5067142;28;20212;-78
2023/05/10 11:23:31;;;;;;;11.40;8.03;;;;;;;12.21;91.13;94905.53;5067693;28;20200;-78
2023/05/10 11:26:01;;;;;;;13.50;8.63;;;;;;;12.29;90.45;94914.84;5069078;28;20212;-77
2023/05/10 11:28:28;;;;;;;12.83;8.00;;;;;;;12.27;91.09;94909.06;5072017;28;20240;-78
2023/05/10 11:30:55;;;;;;;11.00;7.97;;;;;;;12.20;89.99;94897.94;5066580;28;20196;-78
2023/05/10 11:33:22;;;;;;;11.67;8.17;;;;;;;12.20;92.17;94903.94;5065066;28;20263;-79